« Back
NWS Peachtree City, Ga » Text Product » ATL Terminal Aerodrome Forecast


Printer-friendly Version
Current Version              Previous Versions:   1  2  3  4  5  6  7  8  9  

Terminal Aerodrome Forecast

591
FTUS42 KFFC 300955 AAB
TAFATL
TAF AMD
KATL 300955Z 3010/3112 24004KT P6SM FEW060
     FM301200 30004KT P6SM SKC
     FM301500 32007KT P6SM FEW040
     FM302000 32010KT P6SM FEW050
     FM310100 34006KT P6SM FEW250
     FM310500 03005KT P6SM FEW250=

USA.gov is the U.S. government's official web portal to all federal, state and local government web resources and services.